Time;durP1;ratioP1;P1;durP2;ratioP2;P2;SDS_P1;SDS_P2;PMS_P1;PMS_P2;Temp;Humidity;BMP_temperature;BMP_pressure;BME280_temperature;BME280_humidity;BME280_pressure;Samples;Min_cycle;Max_cycle;Signal;HPM_P1;HPM_P2
2023/05/14 01:02:54;;;;;;;0.87;0.67;;;12.80;99.90;;;;;;6123785;23;20863;-83
2023/05/14 01:05:24;;;;;;;0.60;0.50;;;12.80;99.90;;;;;;6124420;23;20378;-82
2023/05/14 01:07:57;;;;;;;1.20;0.70;;;12.80;99.90;;;;;;6123756;23;20408;-82
2023/05/14 01:10:30;;;;;;;0.93;0.75;;;12.80;99.90;;;;;;6124014;23;20445;-83
2023/05/14 01:13:19;;;;;;;0.65;0.50;;;12.80;99.90;;;;;;6124772;23;20413;-82
2023/05/14 01:15:48;;;;;;;0.90;0.50;;;12.90;99.90;;;;;;6124873;23;20378;-83
2023/05/14 01:18:18;;;;;;;0.77;0.60;;;12.90;99.90;;;;;;6101868;23;20433;-82
2023/05/14 01:20:45;;;;;;;0.90;0.70;;;12.90;99.90;;;;;;6124097;23;20437;-82
2023/05/14 01:23:12;;;;;;;0.77;0.60;;;12.80;99.90;;;;;;6125959;23;20381;-83
2023/05/14 01:25:40;;;;;;;1.05;0.60;;;12.90;99.90;;;;;;6123589;23;21426;-83
2023/05/14 01:28:16;;;;;;;0.93;0.73;;;12.90;99.90;;;;;;6125887;23;20374;-83
2023/05/14 01:31:01;;;;;;;1.00;0.70;;;12.80;99.90;;;;;;6126753;23;20392;-83
2023/05/14 01:33:30;;;;;;;0.90;0.70;;;12.80;99.90;;;;;;6126205;23;20878;-83
2023/05/14 01:35:57;;;;;;;1.55;0.77;;;12.80;99.90;;;;;;6127629;23;20404;-82
2023/05/14 01:38:26;;;;;;;1.88;0.77;;;12.70;99.90;;;;;;6124321;23;20385;-83
2023/05/14 01:40:54;;;;;;;1.55;0.80;;;12.70;99.90;;;;;;6127065;23;20783;-83
2023/05/14 01:43:22;;;;;;;1.60;0.90;;;12.60;99.90;;;;;;6126822;23;20430;-83
2023/05/14 01:45:49;;;;;;;1.45;0.80;;;12.70;99.90;;;;;;6125891;23;20386;-83
2023/05/14 01:48:16;;;;;;;0.82;0.60;;;12.70;99.90;;;;;;6127474;23;20449;-83
2023/05/14 01:50:43;;;;;;;1.05;0.90;;;12.60;99.90;;;;;;6123707;23;20381;-83
2023/05/14 01:53:11;;;;;;;1.48;0.70;;;12.60;99.90;;;;;;6127669;23;20389;-83
2023/05/14 01:55:37;;;;;;;1.30;0.63;;;12.60;99.90;;;;;;6125732;23;20445;-83
2023/05/14 01:58:04;;;;;;;0.88;0.68;;;12.60;99.90;;;;;;6152264;23;20398;-83
2023/05/14 02:00:31;;;;;;;0.70;0.60;;;12.70;99.90;;;;;;6125934;23;20417;-83
2023/05/14 02:02:58;;;;;;;0.80;0.65;;;12.70;99.90;;;;;;6121811;23;20407;-83
2023/05/14 02:05:25;;;;;;;0.80;0.80;;;12.70;99.90;;;;;;6097325;23;20376;-82
2023/05/14 02:07:52;;;;;;;0.60;0.60;;;12.70;99.90;;;;;;6096661;23;20383;-83
2023/05/14 02:10:19;;;;;;;1.83;1.00;;;12.70;99.90;;;;;;6097361;23;20376;-82
2023/05/14 02:12:46;;;;;;;1.50;1.25;;;12.60;99.90;;;;;;6096257;23;20384;-81
2023/05/14 02:15:13;;;;;;;1.20;1.10;;;12.60;99.90;;;;;;6097578;23;20699;-82
2023/05/14 02:17:40;;;;;;;1.08;0.90;;;12.60;99.90;;;;;;6096206;23;20427;-82
2023/05/14 02:20:09;;;;;;;0.70;0.70;;;12.60;99.90;;;;;;6097557;23;20368;-82
2023/05/14 02:22:36;;;;;;;1.10;0.60;;;12.50;99.90;;;;;;6121716;23;20376;-82
2023/05/14 02:25:03;;;;;;;0.80;0.80;;;12.60;99.90;;;;;;6097479;23;20777;-82
2023/05/14 02:27:30;;;;;;;0.55;0.52;;;12.60;99.90;;;;;;6121235;23;20435;-82
2023/05/14 02:29:59;;;;;;;0.97;0.70;;;12.60;99.90;;;;;;6123208;23;20504;-82
2023/05/14 02:32:27;;;;;;;0.50;0.50;;;12.60;99.90;;;;;;6097467;23;20403;-82
2023/05/14 02:34:54;;;;;;;2.50;0.70;;;12.60;99.90;;;;;;6095882;23;20375;-83
2023/05/14 02:37:21;;;;;;;1.00;0.55;;;12.60;99.90;;;;;;6097314;23;20431;-82
2023/05/14 02:39:48;;;;;;;2.17;0.70;;;12.60;99.90;;;;;;6095852;23;20447;-82
2023/05/14 02:42:15;;;;;;;0.90;0.65;;;12.60;99.90;;;;;;6096590;23;20753;-82
2023/05/14 02:44:42;;;;;;;0.88;0.73;;;12.60;99.90;;;;;;6096550;23;20384;-83
2023/05/14 02:47:08;;;;;;;0.85;0.75;;;12.60;99.90;;;;;;6096558;23;20718;-82
2023/05/14 02:49:35;;;;;;;1.20;0.70;;;12.60;99.90;;;;;;6096521;23;20380;-79
2023/05/14 02:52:02;;;;;;;1.42;1.17;;;12.50;99.90;;;;;;6096237;23;20407;-79
2023/05/14 02:54:29;;;;;;;0.95;0.88;;;12.50;99.90;;;;;;6122960;23;20371;-82
2023/05/14 02:56:56;;;;;;;1.80;1.00;;;12.50;99.90;;;;;;6094868;23;20363;-82
2023/05/14 02:59:23;;;;;;;1.35;0.98;;;12.50;99.90;;;;;;6096818;23;20710;-81
2023/05/14 03:01:51;;;;;;;1.00;0.90;;;12.50;99.90;;;;;;6096202;23;20372;-81
2023/05/14 03:04:18;;;;;;;1.33;0.82;;;12.40;99.90;;;;;;6096770;23;20430;-82
2023/05/14 03:06:45;;;;;;;0.98;0.70;;;12.50;99.90;;;;;;6095426;23;20768;-82
2023/05/14 03:09:13;;;;;;;0.80;0.80;;;12.50;99.90;;;;;;6096222;23;20438;-81
2023/05/14 03:11:40;;;;;;;0.90;0.75;;;12.50;99.90;;;;;;6120719;23;20371;-81
2023/05/14 03:14:06;;;;;;;1.08;0.90;;;12.40;99.90;;;;;;6096503;23;20407;-82
2023/05/14 03:16:33;;;;;;;1.40;0.95;;;12.50;99.90;;;;;;6095613;23;20402;-81
2023/05/14 03:19:00;;;;;;;1.30;1.10;;;12.50;99.90;;;;;;6096345;23;20399;-82
2023/05/14 03:21:27;;;;;;;0.68;0.68;;;12.40;99.90;;;;;;6096882;23;20403;-82
2023/05/14 03:23:54;;;;;;;1.25;0.70;;;12.50;99.90;;;;;;6095556;23;20368;-82
2023/05/14 03:26:21;;;;;;;0.68;0.68;;;12.40;99.90;;;;;;6096881;23;20454;-81
2023/05/14 03:28:48;;;;;;;0.82;0.70;;;12.50;99.90;;;;;;6095326;23;20462;-82
2023/05/14 03:31:15;;;;;;;0.90;0.70;;;12.50;99.90;;;;;;6096538;23;20687;-82
2023/05/14 03:33:42;;;;;;;1.38;0.80;;;12.50;99.90;;;;;;6095800;23;20446;-82
2023/05/14 03:36:09;;;;;;;1.02;0.55;;;12.50;99.90;;;;;;6096215;23;20739;-82
2023/05/14 03:38:36;;;;;;;2.20;0.82;;;12.50;99.90;;;;;;6095916;23;20467;-82
2023/05/14 03:41:02;;;;;;;2.45;0.95;;;12.50;99.90;;;;;;6096101;23;20402;-81
2023/05/14 03:43:29;;;;;;;1.67;1.00;;;12.50;99.90;;;;;;6096256;23;20462;-81
2023/05/14 03:45:56;;;;;;;1.42;1.00;;;12.50;99.90;;;;;;6095232;23;20380;-81
2023/05/14 03:48:23;;;;;;;1.30;0.80;;;12.40;99.90;;;;;;6096485;23;20379;-81
2023/05/14 03:50:50;;;;;;;2.30;0.98;;;12.40;99.90;;;;;;6095079;23;20460;-82
2023/05/14 03:53:17;;;;;;;0.90;0.77;;;12.40;99.90;;;;;;6095673;23;20454;-82
2023/05/14 03:55:44;;;;;;;1.00;0.80;;;12.40;99.90;;;;;;6094899;23;20434;-81
2023/05/14 03:58:13;;;;;;;1.15;0.80;;;12.40;99.90;;;;;;6096209;23;20710;-82
2023/05/14 04:00:41;;;;;;;1.10;0.90;;;12.40;99.90;;;;;;6095582;23;20384;-81
2023/05/14 04:03:08;;;;;;;1.90;0.93;;;12.30;99.90;;;;;;6120959;23;20430;-81
2023/05/14 04:05:35;;;;;;;0.93;0.75;;;12.30;99.90;;;;;;6096260;23;20372;-82
2023/05/14 04:08:01;;;;;;;2.00;1.10;;;12.30;99.90;;;;;;6095544;23;20379;-82
2023/05/14 04:10:31;;;;;;;0.80;0.80;;;12.30;99.90;;;;;;6095558;23;20407;-82
2023/05/14 04:12:57;;;;;;;0.93;0.80;;;12.30;99.90;;;;;;6095175;23;20464;-82
2023/05/14 04:15:24;;;;;;;1.25;0.70;;;12.30;99.90;;;;;;6121491;23;20703;-82
2023/05/14 04:17:51;;;;;;;0.80;0.63;;;12.30;99.90;;;;;;6095079;23;20415;-82
2023/05/14 04:20:18;;;;;;;2.22;1.02;;;12.20;99.90;;;;;;6096741;23;20399;-81
2023/05/14 04:22:45;;;;;;;1.50;0.90;;;12.20;99.90;;;;;;6095041;23;20454;-82
2023/05/14 04:25:12;;;;;;;1.42;0.95;;;12.20;99.90;;;;;;6096071;23;20375;-81
2023/05/14 04:27:39;;;;;;;1.30;0.90;;;12.20;99.90;;;;;;6094943;23;20383;-82
2023/05/14 04:30:07;;;;;;;1.13;0.80;;;12.10;99.90;;;;;;6096230;23;20396;-81
2023/05/14 04:32:34;;;;;;;1.00;0.90;;;12.10;99.90;;;;;;6095786;23;20391;-82
2023/05/14 04:35:01;;;;;;;1.15;0.60;;;12.10;99.90;;;;;;6120669;23;20723;-81
2023/05/14 04:37:28;;;;;;;1.13;0.80;;;12.20;99.90;;;;;;6096145;23;20379;-82
2023/05/14 04:39:55;;;;;;;1.17;0.80;;;12.20;99.90;;;;;;6095074;23;20368;-81
2023/05/14 04:42:22;;;;;;;0.98;0.80;;;12.20;99.90;;;;;;6121475;23;20379;-82
2023/05/14 04:44:48;;;;;;;1.20;0.70;;;12.20;99.90;;;;;;6094862;23;20383;-81
2023/05/14 04:47:15;;;;;;;1.27;1.10;;;12.20;99.90;;;;;;6095573;23;20439;-82
2023/05/14 04:49:42;;;;;;;0.95;0.85;;;12.20;99.90;;;;;;6095315;23;20375;-81
2023/05/14 04:52:09;;;;;;;1.08;0.80;;;12.20;99.90;;;;;;6095882;23;20679;-82
2023/05/14 04:54:36;;;;;;;1.10;0.70;;;12.10;99.90;;;;;;6096131;23;20428;-82
2023/05/14 04:57:03;;;;;;;1.10;0.60;;;12.20;99.90;;;;;;6095120;23;20452;-82
2023/05/14 04:59:30;;;;;;;0.75;0.60;;;12.20;99.90;;;;;;6096403;23;20376;-82
2023/05/14 05:01:57;;;;;;;0.60;0.60;;;12.20;99.90;;;;;;6094572;23;20376;-81
2023/05/14 05:04:25;;;;;;;1.23;0.60;;;12.20;99.90;;;;;;6097032;23;20706;-82
2023/05/14 05:06:52;;;;;;;0.80;0.60;;;12.20;99.90;;;;;;6096620;23;20741;-81
2023/05/14 05:09:18;;;;;;;0.70;0.52;;;12.20;99.90;;;;;;6097967;23;20410;-81
2023/05/14 05:11:45;;;;;;;1.80;0.70;;;12.30;99.90;;;;;;6121984;23;20709;-81
2023/05/14 05:14:12;;;;;;;1.05;0.50;;;12.30;99.90;;;;;;6097830;23;20399;-82
2023/05/14 05:16:39;;;;;;;0.60;0.60;;;12.30;99.90;;;;;;6097184;23;20422;-82
2023/05/14 05:19:06;;;;;;;0.52;0.50;;;12.40;99.90;;;;;;6122315;23;20379;-81
2023/05/14 05:21:34;;;;;;;1.10;0.70;;;12.40;99.90;;;;;;6097559;23;20463;-81
2023/05/14 05:24:00;;;;;;;0.70;0.70;;;12.40;99.90;;;;;;6096940;23;20710;-82
2023/05/14 05:26:27;;;;;;;0.75;0.65;;;12.30;99.90;;;;;;6097529;23;20442;-82
2023/05/14 05:28:54;;;;;;;2.25;1.02;;;12.40;99.90;;;;;;6096948;23;20430;-82
2023/05/14 05:31:21;;;;;;;1.30;1.00;;;12.40;99.90;;;;;;6123165;23;20371;-82
2023/05/14 05:33:48;;;;;;;1.33;0.80;;;12.30;99.90;;;;;;6096533;23;20396;-81
2023/05/14 05:36:15;;;;;;;1.00;0.73;;;12.40;99.90;;;;;;6097428;23;20456;-82
2023/05/14 05:38:42;;;;;;;0.80;0.80;;;12.40;99.90;;;;;;6122965;23;20383;-81
2023/05/14 05:41:09;;;;;;;0.80;0.63;;;12.40;99.90;;;;;;6097219;23;20745;-82
2023/05/14 05:43:35;;;;;;;0.80;0.68;;;12.40;99.90;;;;;;6097620;23;20379;-81
2023/05/14 05:46:02;;;;;;;1.20;0.70;;;12.40;99.90;;;;;;6096287;23;20861;-81
2023/05/14 05:48:29;;;;;;;1.75;0.77;;;12.40;99.90;;;;;;6097403;23;20379;-82
2023/05/14 05:50:56;;;;;;;1.90;0.90;;;12.50;99.90;;;;;;6096552;23;20388;-81
2023/05/14 05:53:23;;;;;;;1.30;0.70;;;12.50;99.90;;;;;;6122958;23;20391;-81
2023/05/14 05:55:53;;;;;;;1.15;0.95;;;12.50;99.90;;;;;;6096909;23;20402;-82
2023/05/14 05:58:19;;;;;;;0.80;0.70;;;12.50;99.90;;;;;;6097150;23;20380;-82
2023/05/14 06:00:46;;;;;;;0.98;0.85;;;12.50;99.90;;;;;;6096198;23;20862;-82
2023/05/14 06:03:13;;;;;;;1.75;0.98;;;12.60;99.90;;;;;;6096646;23;20399;-82
2023/05/14 06:05:40;;;;;;;0.82;0.63;;;12.60;99.90;;;;;;6096990;23;20383;-82
2023/05/14 06:08:07;;;;;;;1.77;1.38;;;12.70;99.90;;;;;;6095842;23;20838;-81
2023/05/14 06:10:35;;;;;;;1.83;1.70;;;12.70;99.90;;;;;;6097529;23;20718;-82
2023/05/14 06:13:02;;;;;;;1.60;1.50;;;12.80;99.90;;;;;;6096369;23;20773;-82
2023/05/14 06:15:29;;;;;;;2.17;1.88;;;12.80;99.90;;;;;;6096850;23;20459;-82
2023/05/14 06:17:55;;;;;;;2.35;1.63;;;12.80;99.90;;;;;;6096110;23;20395;-82
2023/05/14 06:20:22;;;;;;;2.30;1.60;;;12.80;99.90;;;;;;6097346;23;20399;-82
2023/05/14 06:22:50;;;;;;;1.50;1.20;;;12.90;99.90;;;;;;6096287;23;20396;-82
2023/05/14 06:25:17;;;;;;;1.73;1.60;;;12.90;99.90;;;;;;6122966;23;20443;-82
2023/05/14 06:27:44;;;;;;;1.40;1.30;;;13.00;99.90;;;;;;6096559;23;20475;-82
2023/05/14 06:30:11;;;;;;;1.30;1.00;;;13.10;99.90;;;;;;6096218;23;20667;-82
2023/05/14 06:32:38;;;;;;;1.30;1.15;;;13.10;99.90;;;;;;6096520;23;20471;-82
2023/05/14 06:35:05;;;;;;;2.40;1.50;;;13.20;99.90;;;;;;6095594;23;20387;-81
2023/05/14 06:37:32;;;;;;;1.20;1.10;;;13.30;99.90;;;;;;6096994;23;20383;-82
2023/05/14 06:40:00;;;;;;;1.45;1.08;;;13.40;99.90;;;;;;6096275;23;20375;-81
2023/05/14 06:42:27;;;;;;;0.93;0.80;;;13.60;99.90;;;;;;6122468;23;20403;-82
2023/05/14 06:44:54;;;;;;;1.95;1.00;;;13.70;99.90;;;;;;6096205;23;20459;-82
2023/05/14 06:47:21;;;;;;;0.80;0.80;;;13.90;99.90;;;;;;6096135;23;20928;-81
2023/05/14 06:49:48;;;;;;;1.17;0.90;;;13.90;99.90;;;;;;6096891;23;20395;-81
2023/05/14 06:52:16;;;;;;;0.98;0.82;;;14.00;99.90;;;;;;6095862;23;20372;-82
2023/05/14 06:54:42;;;;;;;0.95;0.80;;;14.10;99.90;;;;;;6122163;23;20388;-81
2023/05/14 06:57:09;;;;;;;1.55;0.90;;;14.10;99.90;;;;;;6095490;23;20384;-82
2023/05/14 06:59:36;;;;;;;1.73;0.80;;;14.20;99.90;;;;;;6096842;23;20380;-82
2023/05/14 07:02:03;;;;;;;1.40;1.00;;;14.20;99.90;;;;;;6095043;23;20380;-82
2023/05/14 07:04:30;;;;;;;1.40;0.77;;;14.20;99.90;;;;;;6096647;23;20371;-82
2023/05/14 07:06:57;;;;;;;0.50;0.45;;;14.30;99.90;;;;;;6095558;23;20439;-82
2023/05/14 07:09:24;;;;;;;0.70;0.53;;;14.40;99.90;;;;;;6096718;23;20447;-81
2023/05/14 07:11:51;;;;;;;1.35;0.60;;;14.50;99.90;;;;;;6096325;23;20454;-80
2023/05/14 07:14:18;;;;;;;0.93;0.50;;;14.60;99.90;;;;;;6096218;23;20371;-82
2023/05/14 07:16:45;;;;;;;1.17;0.50;;;14.70;99.90;;;;;;6096181;23;20383;-82
2023/05/14 07:19:12;;;;;;;1.35;0.60;;;14.70;99.90;;;;;;6095422;23;20395;-82
2023/05/14 07:21:40;;;;;;;0.50;0.50;;;14.80;99.90;;;;;;6096916;23;20853;-82
2023/05/14 07:24:07;;;;;;;2.30;0.50;;;14.90;99.90;;;;;;6094906;23;20462;-82
2023/05/14 07:26:34;;;;;;;1.27;0.50;;;15.10;99.90;;;;;;6096077;23;20396;-82
2023/05/14 07:29:00;;;;;;;0.60;0.40;;;15.20;99.90;;;;;;6121106;23;20458;-82
2023/05/14 07:31:27;;;;;;;0.45;0.30;;;15.30;99.90;;;;;;6096707;23;20395;-82
2023/05/14 07:33:55;;;;;;;0.70;0.30;;;15.40;99.90;;;;;;6120791;23;20438;-82
2023/05/14 07:36:22;;;;;;;0.80;0.30;;;15.60;99.90;;;;;;6096938;23;20364;-82
2023/05/14 07:38:49;;;;;;;0.95;0.32;;;15.70;99.90;;;;;;6096207;23;20704;-83
2023/05/14 07:41:16;;;;;;;0.70;0.40;;;15.90;99.10;;;;;;6095615;23;20659;-83
2023/05/14 07:43:43;;;;;;;0.40;0.30;;;16.10;96.90;;;;;;6096033;23;20466;-83
2023/05/14 07:46:10;;;;;;;0.73;0.30;;;16.10;95.10;;;;;;6095346;23;20380;-83
2023/05/14 07:48:37;;;;;;;0.28;0.20;;;16.20;94.30;;;;;;6122380;23;20434;-83
2023/05/14 07:51:04;;;;;;;0.20;0.20;;;16.10;92.20;;;;;;6121414;23;20380;-83
2023/05/14 07:53:30;;;;;;;0.20;0.20;;;15.90;92.10;;;;;;6096370;23;20522;-84
2023/05/14 07:55:58;;;;;;;0.40;0.22;;;15.90;91.80;;;;;;6095760;23;20368;-83
2023/05/14 07:58:26;;;;;;;0.82;0.20;;;15.90;90.70;;;;;;6096631;23;20407;-83
2023/05/14 08:00:54;;;;;;;1.10;0.40;;;16.00;91.50;;;;;;6096638;23;20683;-83
2023/05/14 08:03:21;;;;;;;0.80;0.20;;;16.10;92.60;;;;;;6120355;23;20376;-83
2023/05/14 08:05:48;;;;;;;1.17;0.45;;;16.20;92.20;;;;;;6097086;23;20380;-83
2023/05/14 08:08:15;;;;;;;1.27;0.50;;;16.30;91.40;;;;;;6095476;23;20443;-84
2023/05/14 08:10:42;;;;;;;0.68;0.28;;;16.40;90.90;;;;;;6121470;23;20379;-83
2023/05/14 08:13:09;;;;;;;0.35;0.30;;;16.50;91.20;;;;;;6095643;23;20692;-83
2023/05/14 08:15:36;;;;;;;1.58;0.50;;;16.60;88.30;;;;;;6096910;23;20386;-81
2023/05/14 08:18:03;;;;;;;1.17;0.30;;;16.50;86.40;;;;;;6094969;23;20584;-83
2023/05/14 08:20:30;;;;;;;0.40;0.20;;;16.50;90.10;;;;;;6096442;23;20391;-83
2023/05/14 08:22:57;;;;;;;0.93;0.43;;;16.50;90.30;;;;;;6096404;23;20422;-82
2023/05/14 08:25:24;;;;;;;1.20;0.50;;;16.60;89.60;;;;;;6121383;23;20443;-83
2023/05/14 08:27:52;;;;;;;2.30;0.40;;;16.80;90.70;;;;;;6096189;23;20750;-83
2023/05/14 08:30:20;;;;;;;0.50;0.30;;;16.80;90.40;;;;;;6095218;23;22492;-82
2023/05/14 08:32:48;;;;;;;0.70;0.30;;;16.80;90.10;;;;;;6096210;23;20450;-83
2023/05/14 08:35:15;;;;;;;0.70;0.30;;;16.80;88.60;;;;;;6095221;23;20396;-83
2023/05/14 08:37:42;;;;;;;1.20;0.40;;;16.70;89.60;;;;;;6121326;23;20379;-84
2023/05/14 08:40:10;;;;;;;1.02;0.40;;;16.70;91.00;;;;;;6096746;23;20435;-84
2023/05/14 08:42:40;;;;;;;0.30;0.30;;;16.60;90.30;;;;;;6098159;23;20379;-83
2023/05/14 08:45:18;;;;;;;0.30;0.30;;;16.60;90.60;;;;;;6097258;23;20420;-83
2023/05/14 08:47:49;;;;;;;0.50;0.40;;;16.60;91.80;;;;;;6098134;23;20383;-84
2023/05/14 08:50:18;;;;;;;0.40;0.30;;;16.60;92.40;;;;;;6097706;23;20746;-83
2023/05/14 08:52:49;;;;;;;1.05;0.47;;;16.60;92.70;;;;;;6097912;23;20375;-83
2023/05/14 08:55:17;;;;;;;0.43;0.30;;;16.70;92.40;;;;;;6097635;23;20384;-83
2023/05/14 08:57:45;;;;;;;0.68;0.43;;;16.70;91.70;;;;;;6098080;23;20470;-83
2023/05/14 09:00:14;;;;;;;0.40;0.30;;;16.70;88.90;;;;;;6121350;23;20415;-82
2023/05/14 09:02:43;;;;;;;0.60;0.30;;;16.60;90.40;;;;;;6096371;23;20383;-83
2023/05/14 09:05:10;;;;;;;0.60;0.32;;;16.60;91.20;;;;;;6095957;23;20411;-82
2023/05/14 09:07:37;;;;;;;0.90;0.40;;;16.60;91.70;;;;;;6097990;23;20696;-83
2023/05/14 09:10:05;;;;;;;1.20;0.40;;;16.70;90.80;;;;;;6097283;23;20375;-82
2023/05/14 09:12:31;;;;;;;0.45;0.20;;;16.70;84.50;;;;;;6097735;23;20379;-82
2023/05/14 09:14:58;;;;;;;0.20;0.20;;;16.60;87.10;;;;;;6097402;23;20462;-83
2023/05/14 09:17:28;;;;;;;0.30;0.20;;;16.70;89.20;;;;;;6096692;23;20415;-83
2023/05/14 09:19:55;;;;;;;0.60;0.20;;;16.80;88.90;;;;;;6097639;23;20387;-83
2023/05/14 09:22:22;;;;;;;0.20;0.20;;;16.90;84.80;;;;;;6123036;23;20459;-84
2023/05/14 09:25:08;;;;;;;0.22;0.22;;;17.00;80.20;;;;;;6097738;23;20375;-83
2023/05/14 09:27:35;;;;;;;0.22;0.20;;;17.10;79.30;;;;;;6097150;23;20374;-82
2023/05/14 09:30:10;;;;;;;0.30;0.20;;;17.30;79.40;;;;;;6098109;23;20460;-83
2023/05/14 09:32:49;;;;;;;1.10;0.30;;;17.50;79.60;;;;;;6097616;23;20374;-83
2023/05/14 09:35:19;;;;;;;0.40;0.30;;;17.80;82.10;;;;;;6095955;23;20384;-83
2023/05/14 09:37:53;;;;;;;1.30;0.40;;;18.00;82.80;;;;;;6097563;23;20376;-83
2023/05/14 09:40:22;;;;;;;0.73;0.40;;;18.30;76.80;;;;;;6095862;23;20379;-82
2023/05/14 09:42:50;;;;;;;0.50;0.30;;;18.30;71.60;;;;;;6098136;23;20372;-82
2023/05/14 09:45:17;;;;;;;0.43;0.40;;;18.30;71.30;;;;;;6096306;23;20390;-83
2023/05/14 09:47:44;;;;;;;0.45;0.22;;;18.30;72.50;;;;;;6097687;23;20379;-82
2023/05/14 09:50:11;;;;;;;1.42;0.30;;;18.40;71.80;;;;;;6097594;23;20853;-83
2023/05/14 09:52:39;;;;;;;0.60;0.25;;;18.50;70.80;;;;;;6097011;23;20383;-83
2023/05/14 09:55:06;;;;;;;0.60;0.20;;;18.50;68.70;;;;;;6097376;23;20379;-82
2023/05/14 09:57:34;;;;;;;0.50;0.22;;;18.50;69.60;;;;;;6097079;23;20387;-82
2023/05/14 10:00:01;;;;;;;0.17;0.10;;;18.70;69.90;;;;;;6097447;23;20923;-84
2023/05/14 10:02:39;;;;;;;0.22;0.10;;;19.10;71.10;;;;;;6097055;23;20380;-84
2023/05/14 10:05:08;;;;;;;0.57;0.30;;;19.40;66.50;;;;;;6096972;23;20435;-83
2023/05/14 10:07:43;;;;;;;0.50;0.20;;;19.60;62.10;;;;;;6122377;23;20380;-83
2023/05/14 10:10:17;;;;;;;0.55;0.40;;;19.60;62.50;;;;;;6096934;23;20854;-84
2023/05/14 10:13:03;;;;;;;0.50;0.20;;;19.60;63.00;;;;;;6097073;23;20427;-83
2023/05/14 10:15:50;;;;;;;0.40;0.25;;;19.80;63.60;;;;;;6096262;23;20414;-82
2023/05/14 10:18:23;;;;;;;0.30;0.20;;;19.90;62.30;;;;;;6096951;23;20407;-83
2023/05/14 10:21:04;;;;;;;0.47;0.20;;;20.20;61.80;;;;;;6096950;23;20383;-83
2023/05/14 10:23:32;;;;;;;0.60;0.40;;;20.40;59.40;;;;;;6096358;23;20721;-83
2023/05/14 10:26:00;;;;;;;0.50;0.32;;;20.80;59.70;;;;;;6097384;23;20757;-83
2023/05/14 10:28:27;;;;;;;0.47;0.30;;;21.10;54.80;;;;;;6096290;23;20442;-82
2023/05/14 10:30:54;;;;;;;0.60;0.25;;;21.30;56.50;;;;;;6097243;23;20709;-83
2023/05/14 10:33:21;;;;;;;1.45;0.32;;;21.20;54.50;;;;;;6122679;23;20382;-83
2023/05/14 10:35:57;;;;;;;0.43;0.30;;;21.10;54.90;;;;;;6121873;23;20383;-82
2023/05/14 10:38:35;;;;;;;0.35;0.20;;;20.90;55.10;;;;;;6097643;23;20375;-83
2023/05/14 10:41:13;;;;;;;0.40;0.20;;;20.70;55.40;;;;;;6096284;23;20963;-83
2023/05/14 10:43:43;;;;;;;0.30;0.20;;;20.50;55.80;;;;;;6096481;23;20936;-83
2023/05/14 10:46:12;;;;;;;0.70;0.30;;;20.30;55.80;;;;;;6097177;23;20431;-83
2023/05/14 10:48:41;;;;;;;0.40;0.20;;;20.10;57.00;;;;;;6095904;23;20380;-82
2023/05/14 10:51:10;;;;;;;0.35;0.20;;;20.00;57.10;;;;;;6097602;23;20427;-83
2023/05/14 10:53:41;;;;;;;1.83;0.20;;;20.00;58.40;;;;;;6097983;23;20699;-82
2023/05/14 10:56:13;;;;;;;0.15;0.10;;;20.00;57.80;;;;;;6097178;23;20388;-83
2023/05/14 10:58:43;;;;;;;0.82;0.32;;;20.00;58.40;;;;;;6098364;23;20372;-83
2023/05/14 11:01:12;;;;;;;0.73;0.20;;;20.00;58.70;;;;;;6097055;23;20842;-83
2023/05/14 11:03:40;;;;;;;1.10;0.20;;;20.00;57.70;;;;;;6097792;23;20446;-83
2023/05/14 11:06:08;;;;;;;0.45;0.20;;;19.90;56.90;;;;;;6097445;23;20395;-83
2023/05/14 11:08:37;;;;;;;0.40;0.20;;;19.70;56.70;;;;;;6097477;23;20382;-83
2023/05/14 11:11:05;;;;;;;0.80;0.20;;;19.60;57.20;;;;;;6096747;23;20442;-84
2023/05/14 11:13:33;;;;;;;0.73;0.30;;;19.50;57.90;;;;;;6097849;23;20400;-82
2023/05/14 11:16:01;;;;;;;0.70;0.20;;;19.60;59.10;;;;;;6096826;23;20707;-82
2023/05/14 11:18:47;;;;;;;0.43;0.20;;;19.60;60.00;;;;;;6100954;23;20376;-82
2023/05/14 11:21:16;;;;;;;2.53;0.30;;;19.70;59.50;;;;;;6121250;23;20371;-82
2023/05/14 11:23:45;;;;;;;1.40;0.30;;;19.70;58.10;;;;;;6097856;23;20426;-83
2023/05/14 11:26:12;;;;;;;0.40;0.20;;;19.80;59.10;;;;;;6122407;23;20434;-83
2023/05/14 11:28:39;;;;;;;0.50;0.20;;;19.90;59.00;;;;;;6095916;23;20421;-82
2023/05/14 11:31:06;;;;;;;0.40;0.30;;;19.90;57.40;;;;;;6097024;23;20435;-83
2023/05/14 11:33:34;;;;;;;0.40;0.22;;;20.00;57.40;;;;;;6097737;23;20383;-84
2023/05/14 11:36:02;;;;;;;1.05;0.20;;;20.10;58.60;;;;;;6096468;23;20893;-82
2023/05/14 11:38:29;;;;;;;0.30;0.20;;;20.20;57.60;;;;;;6098236;23;20379;-82
2023/05/14 11:40:57;;;;;;;0.38;0.10;;;20.40;57.60;;;;;;6095960;23;20376;-83
2023/05/14 11:43:27;;;;;;;0.57;0.20;;;20.50;57.00;;;;;;6097816;23;20448;-84
2023/05/14 11:45:55;;;;;;;0.98;0.30;;;20.60;56.70;;;;;;6095962;23;20378;-83
2023/05/14 11:48:23;;;;;;;1.20;0.30;;;20.60;56.20;;;;;;6097382;23;20451;-83
2023/05/14 11:50:51;;;;;;;0.37;0.20;;;20.70;55.50;;;;;;6097584;23;20443;-83
2023/05/14 11:53:29;;;;;;;0.50;0.30;;;20.70;54.20;;;;;;6089863;23;20704;-83
2023/05/14 11:55:56;;;;;;;0.40;0.20;;;20.80;53.80;;;;;;6094250;23;20384;-83
2023/05/14 11:58:24;;;;;;;0.40;0.30;;;20.80;53.00;;;;;;6097169;23;20837;-83
2023/05/14 12:00:52;;;;;;;0.40;0.20;;;20.80;55.20;;;;;;6097885;23;20442;-83
2023/05/14 12:03:25;;;;;;;1.00;0.20;;;20.80;55.00;;;;;;6096489;23;20379;-83
2023/05/14 12:06:00;;;;;;;0.90;0.20;;;20.70;53.40;;;;;;6097299;23;20380;-83
2023/05/14 12:08:29;;;;;;;0.50;0.20;;;20.60;55.00;;;;;;6096310;23;20473;-83
2023/05/14 12:11:00;;;;;;;0.20;0.20;;;20.60;55.50;;;;;;6097136;23;20388;-83
2023/05/14 12:13:29;;;;;;;0.47;0.30;;;20.70;55.50;;;;;;6095789;23;20485;-83
2023/05/14 12:15:59;;;;;;;2.00;0.30;;;20.70;54.50;;;;;;6097281;23;20376;-82
2023/05/14 12:18:30;;;;;;;3.60;0.50;;;20.60;52.30;;;;;;6096032;23;20367;-82
2023/05/14 12:21:06;;;;;;;0.70;0.30;;;20.50;54.10;;;;;;6097471;23;20443;-83
2023/05/14 12:23:34;;;;;;;1.25;0.40;;;20.50;54.90;;;;;;6096479;23;20450;-82
2023/05/14 12:26:11;;;;;;;0.68;0.30;;;20.40;54.10;;;;;;6097353;23;20750;-83
2023/05/14 12:28:42;;;;;;;1.05;0.50;;;20.40;56.20;;;;;;6096496;23;20446;-83
2023/05/14 12:31:09;;;;;;;0.60;0.40;;;20.40;56.10;;;;;;6097833;23;20384;-82
2023/05/14 12:33:36;;;;;;;0.98;0.50;;;20.50;56.30;;;;;;6096360;23;20435;-83
2023/05/14 12:36:03;;;;;;;0.80;0.50;;;20.50;55.20;;;;;;6097018;23;20875;-82
2023/05/14 12:38:48;;;;;;;1.85;0.50;;;20.50;53.90;;;;;;6099724;23;20383;-81
2023/05/14 12:41:16;;;;;;;0.80;0.40;;;20.50;56.00;;;;;;6097339;23;20418;-83
2023/05/14 12:43:44;;;;;;;1.45;0.50;;;20.80;57.00;;;;;;6096472;23;20383;-83
2023/05/14 12:46:11;;;;;;;1.07;0.47;;;21.10;54.90;;;;;;6097371;23;20881;-82
2023/05/14 12:48:37;;;;;;;0.40;0.30;;;21.40;53.80;;;;;;6096142;23;20379;-82
2023/05/14 12:51:05;;;;;;;0.85;0.30;;;21.70;52.70;;;;;;6097658;23;20383;-82
2023/05/14 12:53:34;;;;;;;0.40;0.30;;;22.00;52.50;;;;;;6096253;23;20372;-82
2023/05/14 12:56:01;;;;;;;0.95;0.30;;;22.30;52.10;;;;;;6122451;23;20439;-82
2023/05/14 12:58:28;;;;;;;2.20;0.40;;;22.50;51.10;;;;;;6095845;23;20383;-82
2023/05/14 13:00:55;;;;;;;0.82;0.40;;;22.70;49.90;;;;;;6096916;23;20705;-82
2023/05/14 13:03:22;;;;;;;0.95;0.30;;;22.80;48.50;;;;;;6091973;23;20448;-82
2023/05/14 13:05:53;;;;;;;0.95;0.40;;;22.70;49.20;;;;;;6091530;23;20381;-82
2023/05/14 13:08:23;;;;;;;1.50;0.40;;;22.40;48.40;;;;;;6091990;23;20698;-82
2023/05/14 13:10:52;;;;;;;1.77;0.40;;;22.20;48.90;;;;;;6092586;23;20433;-83
2023/05/14 13:13:19;;;;;;;0.55;0.30;;;22.00;49.60;;;;;;6091218;23;20389;-82
2023/05/14 13:15:46;;;;;;;0.32;0.20;;;21.80;50.30;;;;;;6091254;23;20389;-82
2023/05/14 13:18:13;;;;;;;0.47;0.20;;;21.70;51.40;;;;;;6092045;23;20409;-83
2023/05/14 13:20:40;;;;;;;0.40;0.20;;;21.50;51.60;;;;;;6091096;23;20378;-83
2023/05/14 13:23:09;;;;;;;0.90;0.20;;;21.60;52.60;;;;;;6091746;23;20420;-83
2023/05/14 13:25:36;;;;;;;0.63;0.30;;;21.60;51.20;;;;;;6091427;23;20416;-83
2023/05/14 13:28:03;;;;;;;0.60;0.30;;;21.70;51.00;;;;;;6094377;23;20385;-83
2023/05/14 13:30:31;;;;;;;0.47;0.20;;;21.80;51.20;;;;;;6093181;23;20848;-82
2023/05/14 13:32:58;;;;;;;1.20;0.20;;;21.90;50.70;;;;;;6093962;23;20373;-82
2023/05/14 13:35:25;;;;;;;0.30;0.20;;;22.00;50.30;;;;;;6094977;23;20389;-82
2023/05/14 13:37:52;;;;;;;1.20;0.40;;;22.30;50.90;;;;;;6093012;23;20362;-80
2023/05/14 13:40:19;;;;;;;0.70;0.35;;;22.40;50.30;;;;;;6095203;23;20413;-82
2023/05/14 13:42:46;;;;;;;0.50;0.30;;;22.40;50.30;;;;;;6093070;23;20373;-82
2023/05/14 13:45:13;;;;;;;0.57;0.20;;;22.40;50.10;;;;;;6092876;23;20764;-83
2023/05/14 13:47:40;;;;;;;0.35;0.20;;;22.50;50.70;;;;;;6092721;23;20382;-83
2023/05/14 13:50:07;;;;;;;0.30;0.20;;;22.50;50.40;;;;;;6094466;23;20468;-83
2023/05/14 13:52:34;;;;;;;0.60;0.20;;;22.50;49.90;;;;;;6093136;23;20385;-83
2023/05/14 13:55:02;;;;;;;1.13;0.30;;;22.40;49.80;;;;;;6093576;23;20393;-83